sensor_id;sensor_type;location;lat;lon;timestamp;P1;durP1;ratioP1;P2;durP2;ratioP2
55784;SDS011;41709;52.536;5.688;2023-09-18T00:01:52;14.13;;;12.73;;
55784;SDS011;41709;52.536;5.688;2023-09-18T00:04:18;14.30;;;12.40;;
55784;SDS011;41709;52.536;5.688;2023-09-18T00:06:43;15.85;;;12.75;;
55784;SDS011;41709;52.536;5.688;2023-09-18T00:09:09;14.63;;;13.13;;
55784;SDS011;41709;52.536;5.688;2023-09-18T00:11:36;14.35;;;12.43;;
55784;SDS011;41709;52.536;5.688;2023-09-18T00:14:03;13.52;;;12.18;;
55784;SDS011;41709;52.536;5.688;2023-09-18T00:16:29;15.18;;;12.13;;
55784;SDS011;41709;52.536;5.688;2023-09-18T00:18:55;15.43;;;12.75;;
55784;SDS011;41709;52.536;5.688;2023-09-18T00:21:20;13.48;;;11.70;;
55784;SDS011;41709;52.536;5.688;2023-09-18T00:23:46;14.93;;;12.68;;
55784;SDS011;41709;52.536;5.688;2023-09-18T00:26:12;13.43;;;12.02;;
55784;SDS011;41709;52.536;5.688;2023-09-18T00:28:37;14.48;;;12.55;;
55784;SDS011;41709;52.536;5.688;2023-09-18T00:31:03;14.77;;;12.57;;
55784;SDS011;41709;52.536;5.688;2023-09-18T00:33:28;12.90;;;11.10;;
55784;SDS011;41709;52.536;5.688;2023-09-18T00:35:54;13.20;;;11.77;;
55784;SDS011;41709;52.536;5.688;2023-09-18T00:38:20;13.05;;;11.70;;
55784;SDS011;41709;52.536;5.688;2023-09-18T00:40:45;13.38;;;12.05;;
55784;SDS011;41709;52.536;5.688;2023-09-18T00:43:11;13.48;;;11.98;;
55784;SDS011;41709;52.536;5.688;2023-09-18T00:45:41;14.23;;;12.15;;
55784;SDS011;41709;52.536;5.688;2023-09-18T00:48:09;12.75;;;11.45;;
55784;SDS011;41709;52.536;5.688;2023-09-18T00:50:35;14.57;;;12.02;;
55784;SDS011;41709;52.536;5.688;2023-09-18T00:53:02;13.50;;;11.88;;
55784;SDS011;41709;52.536;5.688;2023-09-18T00:55:28;14.80;;;12.30;;
55784;SDS011;41709;52.536;5.688;2023-09-18T00:57:56;13.82;;;12.45;;
55784;SDS011;41709;52.536;5.688;2023-09-18T01:00:22;12.93;;;11.52;;
55784;SDS011;41709;52.536;5.688;2023-09-18T01:02:48;13.63;;;12.23;;
55784;SDS011;41709;52.536;5.688;2023-09-18T01:05:14;13.57;;;12.15;;
55784;SDS011;41709;52.536;5.688;2023-09-18T01:07:45;13.60;;;12.18;;
55784;SDS011;41709;52.536;5.688;2023-09-18T01:10:11;12.60;;;11.30;;
55784;SDS011;41709;52.536;5.688;2023-09-18T01:12:45;15.75;;;12.45;;
55784;SDS011;41709;52.536;5.688;2023-09-18T01:15:17;14.57;;;12.55;;
55784;SDS011;41709;52.536;5.688;2023-09-18T01:17:52;17.08;;;11.85;;
55784;SDS011;41709;52.536;5.688;2023-09-18T01:20:17;15.63;;;12.10;;
55784;SDS011;41709;52.536;5.688;2023-09-18T01:22:43;13.70;;;12.15;;
55784;SDS011;41709;52.536;5.688;2023-09-18T01:25:09;13.50;;;12.10;;
55784;SDS011;41709;52.536;5.688;2023-09-18T01:27:35;16.85;;;12.25;;
55784;SDS011;41709;52.536;5.688;2023-09-18T01:30:00;13.80;;;11.02;;
55784;SDS011;41709;52.536;5.688;2023-09-18T01:32:27;14.07;;;12.55;;
55784;SDS011;41709;52.536;5.688;2023-09-18T01:34:56;15.15;;;11.85;;
55784;SDS011;41709;52.536;5.688;2023-09-18T01:37:29;24.75;;;12.85;;
55784;SDS011;41709;52.536;5.688;2023-09-18T01:39:55;13.13;;;11.77;;
55784;SDS011;41709;52.536;5.688;2023-09-18T01:44:51;12.65;;;11.32;;
55784;SDS011;41709;52.536;5.688;2023-09-18T01:47:18;13.32;;;11.98;;
55784;SDS011;41709;52.536;5.688;2023-09-18T01:49:45;12.48;;;11.15;;
55784;SDS011;41709;52.536;5.688;2023-09-18T01:52:11;28.63;;;13.80;;
55784;SDS011;41709;52.536;5.688;2023-09-18T01:54:37;13.68;;;12.13;;
55784;SDS011;41709;52.536;5.688;2023-09-18T01:57:03;12.52;;;11.18;;
55784;SDS011;41709;52.536;5.688;2023-09-18T01:59:29;13.40;;;11.65;;
55784;SDS011;41709;52.536;5.688;2023-09-18T02:01:55;12.60;;;11.18;;
55784;SDS011;41709;52.536;5.688;2023-09-18T02:04:21;15.73;;;12.65;;
55784;SDS011;41709;52.536;5.688;2023-09-18T02:06:48;12.95;;;11.52;;
55784;SDS011;41709;52.536;5.688;2023-09-18T02:09:15;14.05;;;12.13;;
55784;SDS011;41709;52.536;5.688;2023-09-18T02:11:42;15.20;;;12.82;;
55784;SDS011;41709;52.536;5.688;2023-09-18T02:14:09;13.35;;;11.95;;
55784;SDS011;41709;52.536;5.688;2023-09-18T02:16:36;14.43;;;11.75;;
55784;SDS011;41709;52.536;5.688;2023-09-18T02:19:03;13.23;;;11.75;;
55784;SDS011;41709;52.536;5.688;2023-09-18T02:21:29;16.05;;;12.07;;
55784;SDS011;41709;52.536;5.688;2023-09-18T02:23:56;17.88;;;11.88;;
55784;SDS011;41709;52.536;5.688;2023-09-18T02:26:23;13.18;;;11.88;;
55784;SDS011;41709;52.536;5.688;2023-09-18T02:28:51;19.48;;;12.80;;
55784;SDS011;41709;52.536;5.688;2023-09-18T02:31:18;13.30;;;11.50;;
55784;SDS011;41709;52.536;5.688;2023-09-18T02:33:43;12.93;;;11.52;;
55784;SDS011;41709;52.536;5.688;2023-09-18T02:36:09;12.60;;;11.30;;
55784;SDS011;41709;52.536;5.688;2023-09-18T02:38:35;13.10;;;11.65;;
55784;SDS011;41709;52.536;5.688;2023-09-18T02:41:00;14.75;;;11.20;;
55784;SDS011;41709;52.536;5.688;2023-09-18T02:43:26;12.10;;;10.90;;
55784;SDS011;41709;52.536;5.688;2023-09-18T02:45:52;13.55;;;12.18;;
55784;SDS011;41709;52.536;5.688;2023-09-18T02:48:18;13.30;;;11.98;;
55784;SDS011;41709;52.536;5.688;2023-09-18T02:50:44;12.10;;;10.90;;
55784;SDS011;41709;52.536;5.688;2023-09-18T02:53:43;12.77;;;11.25;;
55784;SDS011;41709;52.536;5.688;2023-09-18T02:56:02;14.05;;;12.20;;
55784;SDS011;41709;52.536;5.688;2023-09-18T02:58:27;13.70;;;12.30;;
55784;SDS011;41709;52.536;5.688;2023-09-18T03:00:55;14.20;;;11.50;;
55784;SDS011;41709;52.536;5.688;2023-09-18T03:03:24;12.40;;;11.10;;
55784;SDS011;41709;52.536;5.688;2023-09-18T03:05:50;13.25;;;10.60;;
55784;SDS011;41709;52.536;5.688;2023-09-18T03:08:16;12.85;;;11.43;;
55784;SDS011;41709;52.536;5.688;2023-09-18T03:10:42;11.57;;;10.48;;
55784;SDS011;41709;52.536;5.688;2023-09-18T03:13:09;14.73;;;11.38;;
55784;SDS011;41709;52.536;5.688;2023-09-18T03:15:36;11.70;;;10.45;;
55784;SDS011;41709;52.536;5.688;2023-09-18T03:18:02;14.10;;;10.82;;
55784;SDS011;41709;52.536;5.688;2023-09-18T03:20:29;13.27;;;10.80;;
55784;SDS011;41709;52.536;5.688;2023-09-18T03:22:56;13.70;;;11.30;;
55784;SDS011;41709;52.536;5.688;2023-09-18T03:25:23;15.57;;;11.55;;
55784;SDS011;41709;52.536;5.688;2023-09-18T03:27:52;12.18;;;10.88;;
55784;SDS011;41709;52.536;5.688;2023-09-18T03:30:20;12.05;;;10.52;;
55784;SDS011;41709;52.536;5.688;2023-09-18T03:32:47;13.30;;;10.40;;
55784;SDS011;41709;52.536;5.688;2023-09-18T03:35:15;11.57;;;10.43;;
55784;SDS011;41709;52.536;5.688;2023-09-18T03:40:10;13.80;;;11.00;;
55784;SDS011;41709;52.536;5.688;2023-09-18T03:42:36;15.10;;;10.35;;
55784;SDS011;41709;52.536;5.688;2023-09-18T03:45:01;11.68;;;9.98;;
55784;SDS011;41709;52.536;5.688;2023-09-18T03:47:28;15.05;;;10.70;;
55784;SDS011;41709;52.536;5.688;2023-09-18T03:49:53;11.55;;;10.32;;
55784;SDS011;41709;52.536;5.688;2023-09-18T03:52:19;14.27;;;11.38;;
55784;SDS011;41709;52.536;5.688;2023-09-18T03:54:45;13.50;;;10.60;;
55784;SDS011;41709;52.536;5.688;2023-09-18T03:57:10;11.40;;;10.20;;
55784;SDS011;41709;52.536;5.688;2023-09-18T03:59:36;12.43;;;10.50;;
55784;SDS011;41709;52.536;5.688;2023-09-18T04:02:01;11.65;;;9.77;;
55784;SDS011;41709;52.536;5.688;2023-09-18T04:04:28;13.30;;;10.35;;
55784;SDS011;41709;52.536;5.688;2023-09-18T04:06:54;12.63;;;10.40;;
55784;SDS011;41709;52.536;5.688;2023-09-18T04:09:19;15.13;;;10.07;;
55784;SDS011;41709;52.536;5.688;2023-09-18T04:11:45;11.05;;;9.20;;
55784;SDS011;41709;52.536;5.688;2023-09-18T04:14:10;12.23;;;10.30;;
55784;SDS011;41709;52.536;5.688;2023-09-18T04:16:36;14.55;;;10.35;;
55784;SDS011;41709;52.536;5.688;2023-09-18T04:19:02;12.45;;;10.63;;
55784;SDS011;41709;52.536;5.688;2023-09-18T04:21:28;10.40;;;9.35;;
55784;SDS011;41709;52.536;5.688;2023-09-18T04:23:54;13.63;;;10.10;;
55784;SDS011;41709;52.536;5.688;2023-09-18T04:26:25;12.13;;;10.63;;
55784;SDS011;41709;52.536;5.688;2023-09-18T04:29:00;12.63;;;9.82;;
55784;SDS011;41709;52.536;5.688;2023-09-18T04:31:26;11.85;;;10.48;;
55784;SDS011;41709;52.536;5.688;2023-09-18T04:33:52;13.65;;;10.93;;
55784;SDS011;41709;52.536;5.688;2023-09-18T04:36:18;15.10;;;10.65;;
55784;SDS011;41709;52.536;5.688;2023-09-18T04:38:44;15.68;;;10.68;;
55784;SDS011;41709;52.536;5.688;2023-09-18T04:41:10;11.45;;;9.90;;
55784;SDS011;41709;52.536;5.688;2023-09-18T04:43:36;11.40;;;10.05;;
55784;SDS011;41709;52.536;5.688;2023-09-18T04:46:03;14.43;;;11.25;;
55784;SDS011;41709;52.536;5.688;2023-09-18T04:48:30;12.77;;;10.70;;
55784;SDS011;41709;52.536;5.688;2023-09-18T04:50:56;10.90;;;9.55;;
55784;SDS011;41709;52.536;5.688;2023-09-18T04:53:22;14.20;;;10.52;;
55784;SDS011;41709;52.536;5.688;2023-09-18T04:55:48;13.07;;;10.88;;
55784;SDS011;41709;52.536;5.688;2023-09-18T04:58:15;14.48;;;9.38;;
55784;SDS011;41709;52.536;5.688;2023-09-18T05:00:41;13.98;;;9.70;;
55784;SDS011;41709;52.536;5.688;2023-09-18T05:03:07;14.02;;;9.77;;
55784;SDS011;41709;52.536;5.688;2023-09-18T05:05:34;12.40;;;10.20;;
55784;SDS011;41709;52.536;5.688;2023-09-18T05:08:01;10.77;;;9.00;;
55784;SDS011;41709;52.536;5.688;2023-09-18T05:10:28;15.65;;;9.60;;
55784;SDS011;41709;52.536;5.688;2023-09-18T05:12:54;16.25;;;9.25;;
55784;SDS011;41709;52.536;5.688;2023-09-18T05:15:23;13.23;;;9.30;;
55784;SDS011;41709;52.536;5.688;2023-09-18T05:17:51;12.57;;;8.32;;
55784;SDS011;41709;52.536;5.688;2023-09-18T05:20:20;11.50;;;8.77;;
55784;SDS011;41709;52.536;5.688;2023-09-18T05:22:49;16.20;;;9.55;;
55784;SDS011;41709;52.536;5.688;2023-09-18T05:25:14;14.48;;;9.45;;
55784;SDS011;41709;52.536;5.688;2023-09-18T05:27:40;11.77;;;8.43;;
55784;SDS011;41709;52.536;5.688;2023-09-18T05:30:10;13.60;;;9.57;;
55784;SDS011;41709;52.536;5.688;2023-09-18T05:32:36;12.60;;;9.30;;
55784;SDS011;41709;52.536;5.688;2023-09-18T05:35:02;12.38;;;9.95;;
55784;SDS011;41709;52.536;5.688;2023-09-18T05:37:31;14.02;;;9.35;;
55784;SDS011;41709;52.536;5.688;2023-09-18T05:39:57;11.65;;;8.82;;
55784;SDS011;41709;52.536;5.688;2023-09-18T05:42:23;11.85;;;10.10;;
55784;SDS011;41709;52.536;5.688;2023-09-18T05:44:48;17.17;;;10.43;;
55784;SDS011;41709;52.536;5.688;2023-09-18T05:47:14;11.73;;;9.70;;
55784;SDS011;41709;52.536;5.688;2023-09-18T05:49:39;15.10;;;10.63;;
55784;SDS011;41709;52.536;5.688;2023-09-18T05:52:05;15.88;;;10.65;;
55784;SDS011;41709;52.536;5.688;2023-09-18T05:54:30;14.70;;;10.10;;
55784;SDS011;41709;52.536;5.688;2023-09-18T05:56:56;19.92;;;10.63;;
55784;SDS011;41709;52.536;5.688;2023-09-18T05:59:22;13.05;;;9.75;;
55784;SDS011;41709;52.536;5.688;2023-09-18T06:01:47;15.80;;;9.45;;
55784;SDS011;41709;52.536;5.688;2023-09-18T06:04:14;13.27;;;8.88;;
55784;SDS011;41709;52.536;5.688;2023-09-18T06:06:41;16.45;;;9.30;;
55784;SDS011;41709;52.536;5.688;2023-09-18T06:09:07;12.65;;;8.75;;
55784;SDS011;41709;52.536;5.688;2023-09-18T06:11:33;14.63;;;8.07;;
55784;SDS011;41709;52.536;5.688;2023-09-18T06:13:58;11.43;;;6.75;;
55784;SDS011;41709;52.536;5.688;2023-09-18T06:16:24;6.32;;;4.70;;
55784;SDS011;41709;52.536;5.688;2023-09-18T06:18:50;12.93;;;5.97;;
55784;SDS011;41709;52.536;5.688;2023-09-18T06:21:15;7.07;;;4.28;;
55784;SDS011;41709;52.536;5.688;2023-09-18T06:23:41;5.25;;;3.38;;
55784;SDS011;41709;52.536;5.688;2023-09-18T06:26:07;5.15;;;3.45;;
55784;SDS011;41709;52.536;5.688;2023-09-18T06:28:32;4.25;;;3.40;;
55784;SDS011;41709;52.536;5.688;2023-09-18T06:30:58;5.75;;;3.72;;
55784;SDS011;41709;52.536;5.688;2023-09-18T06:33:23;5.00;;;3.13;;
55784;SDS011;41709;52.536;5.688;2023-09-18T06:35:49;5.55;;;3.80;;
55784;SDS011;41709;52.536;5.688;2023-09-18T06:38:16;5.60;;;3.65;;
55784;SDS011;41709;52.536;5.688;2023-09-18T06:40:42;5.60;;;3.20;;
55784;SDS011;41709;52.536;5.688;2023-09-18T06:43:07;5.85;;;3.08;;
55784;SDS011;41709;52.536;5.688;2023-09-18T06:45:33;4.25;;;3.33;;
55784;SDS011;41709;52.536;5.688;2023-09-18T06:47:59;4.35;;;3.13;;
55784;SDS011;41709;52.536;5.688;2023-09-18T06:52:53;7.50;;;3.88;;
55784;SDS011;41709;52.536;5.688;2023-09-18T06:55:19;6.80;;;3.83;;
55784;SDS011;41709;52.536;5.688;2023-09-18T06:57:44;7.38;;;3.55;;
55784;SDS011;41709;52.536;5.688;2023-09-18T07:00:12;5.53;;;3.67;;
55784;SDS011;41709;52.536;5.688;2023-09-18T07:02:40;9.30;;;3.50;;
55784;SDS011;41709;52.536;5.688;2023-09-18T07:05:05;6.95;;;4.30;;
55784;SDS011;41709;52.536;5.688;2023-09-18T07:07:31;6.20;;;3.65;;
55784;SDS011;41709;52.536;5.688;2023-09-18T07:09:57;4.97;;;3.60;;
55784;SDS011;41709;52.536;5.688;2023-09-18T07:12:22;9.63;;;3.70;;
55784;SDS011;41709;52.536;5.688;2023-09-18T07:14:48;5.35;;;3.75;;
55784;SDS011;41709;52.536;5.688;2023-09-18T07:17:14;6.65;;;3.85;;
55784;SDS011;41709;52.536;5.688;2023-09-18T07:19:40;5.90;;;3.50;;
55784;SDS011;41709;52.536;5.688;2023-09-18T07:22:06;4.93;;;4.00;;
55784;SDS011;41709;52.536;5.688;2023-09-18T07:24:31;4.50;;;3.58;;
55784;SDS011;41709;52.536;5.688;2023-09-18T07:26:57;6.18;;;4.00;;
55784;SDS011;41709;52.536;5.688;2023-09-18T07:29:23;5.15;;;4.30;;
55784;SDS011;41709;52.536;5.688;2023-09-18T07:31:50;6.65;;;4.20;;
55784;SDS011;41709;52.536;5.688;2023-09-18T07:34:16;8.40;;;4.75;;
55784;SDS011;41709;52.536;5.688;2023-09-18T07:36:42;5.55;;;4.05;;
55784;SDS011;41709;52.536;5.688;2023-09-18T07:39:09;6.88;;;4.43;;
55784;SDS011;41709;52.536;5.688;2023-09-18T07:41:36;7.60;;;4.45;;
55784;SDS011;41709;52.536;5.688;2023-09-18T07:44:02;5.72;;;4.40;;
55784;SDS011;41709;52.536;5.688;2023-09-18T07:46:28;7.53;;;4.38;;
55784;SDS011;41709;52.536;5.688;2023-09-18T07:48:54;7.07;;;5.15;;
55784;SDS011;41709;52.536;5.688;2023-09-18T07:51:20;7.30;;;4.60;;
55784;SDS011;41709;52.536;5.688;2023-09-18T07:53:45;6.78;;;4.90;;
55784;SDS011;41709;52.536;5.688;2023-09-18T07:56:11;7.35;;;4.97;;
55784;SDS011;41709;52.536;5.688;2023-09-18T07:58:37;7.50;;;5.00;;
55784;SDS011;41709;52.536;5.688;2023-09-18T08:01:03;5.80;;;4.57;;
55784;SDS011;41709;52.536;5.688;2023-09-18T08:03:30;8.05;;;5.10;;
55784;SDS011;41709;52.536;5.688;2023-09-18T08:05:56;6.13;;;4.82;;
55784;SDS011;41709;52.536;5.688;2023-09-18T08:08:22;6.57;;;4.90;;
55784;SDS011;41709;52.536;5.688;2023-09-18T08:10:49;8.43;;;5.25;;
55784;SDS011;41709;52.536;5.688;2023-09-18T08:13:15;5.68;;;5.03;;
55784;SDS011;41709;52.536;5.688;2023-09-18T08:15:41;7.97;;;5.20;;
55784;SDS011;41709;52.536;5.688;2023-09-18T08:18:07;6.75;;;4.82;;
55784;SDS011;41709;52.536;5.688;2023-09-18T08:20:32;6.53;;;5.63;;
55784;SDS011;41709;52.536;5.688;2023-09-18T08:22:58;7.05;;;5.28;;
55784;SDS011;41709;52.536;5.688;2023-09-18T08:25:28;7.70;;;5.55;;
55784;SDS011;41709;52.536;5.688;2023-09-18T08:27:54;9.13;;;5.40;;
55784;SDS011;41709;52.536;5.688;2023-09-18T08:30:19;9.60;;;7.13;;
55784;SDS011;41709;52.536;5.688;2023-09-18T08:32:46;8.75;;;5.53;;
55784;SDS011;41709;52.536;5.688;2023-09-18T08:35:12;8.88;;;6.88;;
55784;SDS011;41709;52.536;5.688;2023-09-18T08:37:39;9.05;;;6.22;;
55784;SDS011;41709;52.536;5.688;2023-09-18T08:40:11;8.82;;;7.28;;
55784;SDS011;41709;52.536;5.688;2023-09-18T08:42:39;8.98;;;7.05;;
55784;SDS011;41709;52.536;5.688;2023-09-18T08:45:09;7.50;;;6.63;;
55784;SDS011;41709;52.536;5.688;2023-09-18T08:47:39;8.52;;;6.90;;
55784;SDS011;41709;52.536;5.688;2023-09-18T08:50:06;8.10;;;7.30;;
55784;SDS011;41709;52.536;5.688;2023-09-18T08:52:35;8.68;;;6.43;;
55784;SDS011;41709;52.536;5.688;2023-09-18T08:55:01;7.53;;;6.75;;
55784;SDS011;41709;52.536;5.688;2023-09-18T08:57:28;7.57;;;6.88;;
55784;SDS011;41709;52.536;5.688;2023-09-18T08:59:55;8.80;;;7.90;;
55784;SDS011;41709;52.536;5.688;2023-09-18T09:02:23;8.95;;;7.03;;
55784;SDS011;41709;52.536;5.688;2023-09-18T09:04:48;10.20;;;7.47;;
55784;SDS011;41709;52.536;5.688;2023-09-18T09:07:14;8.32;;;6.38;;
55784;SDS011;41709;52.536;5.688;2023-09-18T09:09:40;10.32;;;6.50;;
55784;SDS011;41709;52.536;5.688;2023-09-18T09:12:07;7.30;;;6.60;;
55784;SDS011;41709;52.536;5.688;2023-09-18T09:14:33;7.75;;;6.57;;
55784;SDS011;41709;52.536;5.688;2023-09-18T09:16:58;6.45;;;5.90;;
55784;SDS011;41709;52.536;5.688;2023-09-18T09:19:31;10.35;;;6.47;;
55784;SDS011;41709;52.536;5.688;2023-09-18T09:21:58;7.68;;;5.85;;
55784;SDS011;41709;52.536;5.688;2023-09-18T09:24:41;9.43;;;6.20;;
55784;SDS011;41709;52.536;5.688;2023-09-18T09:27:08;6.57;;;5.97;;
55784;SDS011;41709;52.536;5.688;2023-09-18T09:29:34;6.35;;;5.75;;
55784;SDS011;41709;52.536;5.688;2023-09-18T09:34:40;9.57;;;5.85;;
55784;SDS011;41709;52.536;5.688;2023-09-18T09:37:06;14.73;;;6.00;;
55784;SDS011;41709;52.536;5.688;2023-09-18T09:39:32;5.75;;;5.15;;
55784;SDS011;41709;52.536;5.688;2023-09-18T09:42:02;7.28;;;5.57;;
55784;SDS011;41709;52.536;5.688;2023-09-18T09:44:31;6.82;;;4.88;;
55784;SDS011;41709;52.536;5.688;2023-09-18T09:46:57;7.07;;;4.57;;
55784;SDS011;41709;52.536;5.688;2023-09-18T09:49:24;5.07;;;4.32;;
55784;SDS011;41709;52.536;5.688;2023-09-18T09:51:53;4.95;;;4.22;;
55784;SDS011;41709;52.536;5.688;2023-09-18T09:54:40;6.35;;;4.05;;
55784;SDS011;41709;52.536;5.688;2023-09-18T09:57:05;8.73;;;4.40;;
55784;SDS011;41709;52.536;5.688;2023-09-18T09:59:31;5.32;;;3.78;;
55784;SDS011;41709;52.536;5.688;2023-09-18T10:02:00;7.07;;;3.78;;
55784;SDS011;41709;52.536;5.688;2023-09-18T10:04:27;4.07;;;3.30;;
55784;SDS011;41709;52.536;5.688;2023-09-18T10:06:57;6.95;;;4.22;;
55784;SDS011;41709;52.536;5.688;2023-09-18T10:09:26;4.00;;;2.97;;
55784;SDS011;41709;52.536;5.688;2023-09-18T10:11:54;6.33;;;3.07;;
55784;SDS011;41709;52.536;5.688;2023-09-18T10:14:30;5.25;;;3.30;;
55784;SDS011;41709;52.536;5.688;2023-09-18T10:16:59;4.15;;;3.33;;
55784;SDS011;41709;52.536;5.688;2023-09-18T10:19:40;3.95;;;3.50;;
55784;SDS011;41709;52.536;5.688;2023-09-18T10:24:59;3.45;;;3.00;;
55784;SDS011;41709;52.536;5.688;2023-09-18T10:27:43;6.70;;;3.13;;
55784;SDS011;41709;52.536;5.688;2023-09-18T10:30:15;6.80;;;3.20;;
55784;SDS011;41709;52.536;5.688;2023-09-18T10:32:44;4.78;;;3.28;;
55784;SDS011;41709;52.536;5.688;2023-09-18T10:35:11;3.28;;;2.95;;
55784;SDS011;41709;52.536;5.688;2023-09-18T10:37:43;6.60;;;3.50;;
55784;SDS011;41709;52.536;5.688;2023-09-18T10:40:11;3.75;;;3.22;;
55784;SDS011;41709;52.536;5.688;2023-09-18T10:42:38;5.25;;;3.72;;
55784;SDS011;41709;52.536;5.688;2023-09-18T10:45:07;5.93;;;3.40;;
55784;SDS011;41709;52.536;5.688;2023-09-18T10:47:38;4.15;;;3.13;;
55784;SDS011;41709;52.536;5.688;2023-09-18T10:50:06;4.05;;;2.92;;
55784;SDS011;41709;52.536;5.688;2023-09-18T10:52:34;5.85;;;3.40;;
55784;SDS011;41709;52.536;5.688;2023-09-18T10:55:01;7.43;;;3.33;;
55784;SDS011;41709;52.536;5.688;2023-09-18T10:57:32;3.92;;;3.38;;
55784;SDS011;41709;52.536;5.688;2023-09-18T11:00:00;6.57;;;2.90;;
55784;SDS011;41709;52.536;5.688;2023-09-18T11:02:26;3.28;;;2.70;;
55784;SDS011;41709;52.536;5.688;2023-09-18T11:04:53;5.55;;;2.90;;
55784;SDS011;41709;52.536;5.688;2023-09-18T11:07:23;8.18;;;3.35;;
55784;SDS011;41709;52.536;5.688;2023-09-18T11:09:50;4.55;;;2.90;;
55784;SDS011;41709;52.536;5.688;2023-09-18T11:12:16;5.22;;;3.30;;
55784;SDS011;41709;52.536;5.688;2023-09-18T11:14:49;4.45;;;2.90;;
55784;SDS011;41709;52.536;5.688;2023-09-18T11:23:10;6.63;;;3.28;;
55784;SDS011;41709;52.536;5.688;2023-09-18T11:25:40;3.88;;;2.80;;
55784;SDS011;41709;52.536;5.688;2023-09-18T11:28:07;3.55;;;2.80;;
55784;SDS011;41709;52.536;5.688;2023-09-18T11:30:37;5.47;;;2.88;;
55784;SDS011;41709;52.536;5.688;2023-09-18T11:33:12;3.85;;;3.45;;
55784;SDS011;41709;52.536;5.688;2023-09-18T11:35:38;5.22;;;3.17;;
55784;SDS011;41709;52.536;5.688;2023-09-18T11:38:16;4.20;;;2.97;;
55784;SDS011;41709;52.536;5.688;2023-09-18T11:40:41;3.50;;;2.70;;
55784;SDS011;41709;52.536;5.688;2023-09-18T11:43:25;2.97;;;2.67;;
55784;SDS011;41709;52.536;5.688;2023-09-18T11:45:55;4.35;;;3.00;;
55784;SDS011;41709;52.536;5.688;2023-09-18T11:48:22;3.55;;;2.83;;
55784;SDS011;41709;52.536;5.688;2023-09-18T11:50:52;4.43;;;2.53;;
55784;SDS011;41709;52.536;5.688;2023-09-18T11:53:19;3.35;;;2.45;;
55784;SDS011;41709;52.536;5.688;2023-09-18T11:55:46;3.22;;;2.58;;
55784;SDS011;41709;52.536;5.688;2023-09-18T11:58:13;5.85;;;3.00;;
55784;SDS011;41709;52.536;5.688;2023-09-18T12:00:39;3.70;;;2.50;;
55784;SDS011;41709;52.536;5.688;2023-09-18T12:03:20;4.97;;;3.05;;
55784;SDS011;41709;52.536;5.688;2023-09-18T12:05:51;5.85;;;2.55;;
55784;SDS011;41709;52.536;5.688;2023-09-18T12:08:22;5.18;;;2.97;;
55784;SDS011;41709;52.536;5.688;2023-09-18T12:10:49;3.35;;;3.05;;
55784;SDS011;41709;52.536;5.688;2023-09-18T12:13:16;3.78;;;3.42;;
55784;SDS011;41709;52.536;5.688;2023-09-18T12:15:41;8.70;;;2.97;;
55784;SDS011;41709;52.536;5.688;2023-09-18T12:18:08;3.92;;;2.70;;
55784;SDS011;41709;52.536;5.688;2023-09-18T12:20:36;5.88;;;3.08;;
55784;SDS011;41709;52.536;5.688;2023-09-18T12:23:02;3.97;;;2.22;;
55784;SDS011;41709;52.536;5.688;2023-09-18T12:25:29;3.65;;;2.47;;
55784;SDS011;41709;52.536;5.688;2023-09-18T12:27:55;3.28;;;2.53;;
55784;SDS011;41709;52.536;5.688;2023-09-18T12:30:21;3.42;;;2.45;;
55784;SDS011;41709;52.536;5.688;2023-09-18T12:32:48;3.78;;;3.15;;
55784;SDS011;41709;52.536;5.688;2023-09-18T12:35:17;3.40;;;2.80;;
55784;SDS011;41709;52.536;5.688;2023-09-18T12:37:43;3.00;;;2.60;;
55784;SDS011;41709;52.536;5.688;2023-09-18T12:40:28;6.47;;;2.58;;
55784;SDS011;41709;52.536;5.688;2023-09-18T12:42:58;5.50;;;3.22;;
55784;SDS011;41709;52.536;5.688;2023-09-18T12:45:24;3.63;;;2.38;;
55784;SDS011;41709;52.536;5.688;2023-09-18T12:47:50;3.58;;;2.22;;
55784;SDS011;41709;52.536;5.688;2023-09-18T12:50:17;7.65;;;2.22;;
55784;SDS011;41709;52.536;5.688;2023-09-18T12:52:43;3.60;;;2.25;;
55784;SDS011;41709;52.536;5.688;2023-09-18T12:55:20;4.82;;;2.40;;
55784;SDS011;41709;52.536;5.688;2023-09-18T12:57:49;5.47;;;2.80;;
55784;SDS011;41709;52.536;5.688;2023-09-18T13:00:17;5.32;;;2.63;;
55784;SDS011;41709;52.536;5.688;2023-09-18T13:02:47;3.63;;;2.47;;
55784;SDS011;41709;52.536;5.688;2023-09-18T13:07:45;3.72;;;2.20;;
55784;SDS011;41709;52.536;5.688;2023-09-18T13:10:10;3.60;;;2.45;;
55784;SDS011;41709;52.536;5.688;2023-09-18T13:12:42;3.50;;;2.97;;
55784;SDS011;41709;52.536;5.688;2023-09-18T13:15:11;4.25;;;3.05;;
55784;SDS011;41709;52.536;5.688;2023-09-18T13:17:42;5.60;;;3.65;;
55784;SDS011;41709;52.536;5.688;2023-09-18T13:20:20;4.20;;;3.28;;
55784;SDS011;41709;52.536;5.688;2023-09-18T13:22:50;4.43;;;3.42;;
55784;SDS011;41709;52.536;5.688;2023-09-18T13:25:24;4.53;;;3.50;;
55784;SDS011;41709;52.536;5.688;2023-09-18T13:28:00;5.43;;;3.60;;
55784;SDS011;41709;52.536;5.688;2023-09-18T13:30:28;8.40;;;3.70;;
55784;SDS011;41709;52.536;5.688;2023-09-18T13:33:06;4.93;;;3.00;;
55784;SDS011;41709;52.536;5.688;2023-09-18T13:35:34;3.58;;;2.85;;
55784;SDS011;41709;52.536;5.688;2023-09-18T13:38:02;3.17;;;2.40;;
55784;SDS011;41709;52.536;5.688;2023-09-18T13:40:32;3.85;;;2.42;;
55784;SDS011;41709;52.536;5.688;2023-09-18T13:43:02;10.85;;;2.78;;
55784;SDS011;41709;52.536;5.688;2023-09-18T13:45:32;4.38;;;2.35;;
55784;SDS011;41709;52.536;5.688;2023-09-18T13:48:00;4.53;;;2.08;;
55784;SDS011;41709;52.536;5.688;2023-09-18T13:50:25;3.17;;;2.03;;
55784;SDS011;41709;52.536;5.688;2023-09-18T13:52:51;6.03;;;2.08;;
55784;SDS011;41709;52.536;5.688;2023-09-18T13:55:17;7.15;;;2.25;;
55784;SDS011;41709;52.536;5.688;2023-09-18T13:57:42;4.47;;;2.17;;
55784;SDS011;41709;52.536;5.688;2023-09-18T14:00:08;4.20;;;1.92;;
55784;SDS011;41709;52.536;5.688;2023-09-18T14:02:37;3.85;;;2.10;;
55784;SDS011;41709;52.536;5.688;2023-09-18T14:05:03;3.55;;;2.05;;
55784;SDS011;41709;52.536;5.688;2023-09-18T14:07:29;2.63;;;2.13;;
55784;SDS011;41709;52.536;5.688;2023-09-18T14:09:55;3.35;;;2.30;;
55784;SDS011;41709;52.536;5.688;2023-09-18T14:12:21;3.90;;;2.28;;
55784;SDS011;41709;52.536;5.688;2023-09-18T14:14:47;4.95;;;3.15;;
55784;SDS011;41709;52.536;5.688;2023-09-18T14:17:12;3.97;;;2.10;;
55784;SDS011;41709;52.536;5.688;2023-09-18T14:19:38;3.80;;;2.33;;
55784;SDS011;41709;52.536;5.688;2023-09-18T14:22:07;5.78;;;2.97;;
55784;SDS011;41709;52.536;5.688;2023-09-18T14:24:33;5.53;;;3.38;;
55784;SDS011;41709;52.536;5.688;2023-09-18T14:26:59;6.45;;;4.22;;
55784;SDS011;41709;52.536;5.688;2023-09-18T14:29:29;2.95;;;2.35;;
55784;SDS011;41709;52.536;5.688;2023-09-18T14:31:55;3.00;;;2.03;;
55784;SDS011;41709;52.536;5.688;2023-09-18T14:34:21;2.45;;;2.13;;
55784;SDS011;41709;52.536;5.688;2023-09-18T14:36:47;4.32;;;2.30;;
55784;SDS011;41709;52.536;5.688;2023-09-18T14:39:13;2.95;;;1.92;;
55784;SDS011;41709;52.536;5.688;2023-09-18T14:41:38;9.23;;;2.97;;
55784;SDS011;41709;52.536;5.688;2023-09-18T14:44:05;2.35;;;1.73;;
55784;SDS011;41709;52.536;5.688;2023-09-18T14:46:33;2.33;;;2.00;;
55784;SDS011;41709;52.536;5.688;2023-09-18T14:49:00;3.90;;;1.83;;
55784;SDS011;41709;52.536;5.688;2023-09-18T14:51:29;2.65;;;1.80;;
55784;SDS011;41709;52.536;5.688;2023-09-18T14:53:55;3.00;;;1.92;;
55784;SDS011;41709;52.536;5.688;2023-09-18T14:56:21;3.67;;;2.00;;
55784;SDS011;41709;52.536;5.688;2023-09-18T14:58:46;4.93;;;2.35;;
55784;SDS011;41709;52.536;5.688;2023-09-18T15:01:12;2.92;;;1.73;;